createdAt,value
2023-03-28T00:01:08.155Z,92.50
2023-03-28T00:03:38.642Z,92.80
2023-03-28T00:06:10.280Z,93.30
2023-03-28T00:08:38.654Z,93.80
2023-03-28T00:11:18.457Z,94.50
2023-03-28T00:13:47.192Z,95.10
2023-03-28T00:16:14.127Z,95.30
2023-03-28T00:18:41.810Z,95.10
2023-03-28T00:21:25.377Z,95.10
2023-03-28T00:24:01.918Z,95.20
2023-03-28T00:26:32.606Z,95.40
2023-03-28T00:29:00.616Z,95.60
2023-03-28T00:31:28.205Z,96.10
2023-03-28T00:33:56.035Z,95.80
2023-03-28T00:36:25.711Z,96.30
2023-03-28T00:38:53.154Z,96.70
2023-03-28T00:41:25.876Z,97.00
2023-03-28T00:43:54.876Z,97.50
2023-03-28T00:46:38.306Z,97.70
2023-03-28T00:49:20.649Z,97.90
2023-03-28T00:51:57.429Z,98.10
2023-03-28T00:54:28.904Z,98.50
2023-03-28T00:57:00.493Z,98.80
2023-03-28T00:59:33.378Z,99.40
2023-03-28T01:02:00.329Z,99.70
2023-03-28T01:04:48.712Z,99.90
2023-03-28T01:07:16.388Z,99.90
2023-03-28T01:09:43.289Z,99.90
2023-03-28T01:12:11.092Z,99.90
2023-03-28T01:14:39.266Z,99.90
2023-03-28T01:17:05.909Z,99.90
2023-03-28T01:21:33.837Z,99.90
2023-03-28T01:25:18.634Z,99.90
2023-03-28T01:30:33.380Z,99.90
2023-03-28T01:34:49.711Z,99.90
2023-03-28T01:40:26.628Z,99.90
2023-03-28T01:44:59.216Z,99.90
2023-03-28T01:47:40.507Z,99.90
2023-03-28T01:54:51.591Z,99.80
2023-03-28T01:57:44.566Z,98.90
2023-03-28T02:00:31.717Z,99.90
2023-03-28T02:03:48.253Z,99.90
2023-03-28T02:06:17.212Z,99.90
2023-03-28T02:08:47.853Z,99.90
2023-03-28T02:11:14.636Z,99.90
2023-03-28T02:13:53.897Z,99.90
2023-03-28T02:16:22.531Z,99.90
2023-03-28T02:18:55.879Z,99.90
2023-03-28T02:21:40.631Z,99.90
2023-03-28T02:24:09.008Z,99.90
2023-03-28T02:26:36.410Z,99.90
2023-03-28T02:29:03.491Z,99.90
2023-03-28T02:31:31.752Z,99.90
2023-03-28T02:33:58.763Z,99.90
2023-03-28T02:39:25.064Z,99.90
2023-03-28T02:45:21.967Z,99.90
2023-03-28T02:48:27.950Z,99.90
2023-03-28T02:51:34.022Z,99.90
2023-03-28T02:56:36.807Z,99.90
2023-03-28T02:59:22.800Z,99.90
2023-03-28T03:01:50.627Z,99.90
2023-03-28T03:04:17.521Z,99.90
2023-03-28T03:06:47.712Z,99.90
2023-03-28T03:09:16.396Z,99.90
2023-03-28T03:11:42.911Z,99.90
2023-03-28T03:14:09.569Z,99.90
2023-03-28T03:16:37.772Z,99.90
2023-03-28T03:19:04.837Z,99.90
2023-03-28T03:21:31.351Z,99.90
2023-03-28T03:23:57.856Z,99.90
2023-03-28T03:26:24.319Z,99.90
2023-03-28T03:28:50.811Z,99.90
2023-03-28T03:31:18.745Z,99.90
2023-03-28T03:33:45.301Z,99.90
2023-03-28T03:36:12.497Z,99.90
2023-03-28T03:38:39.591Z,99.90
2023-03-28T03:41:06.324Z,99.90
2023-03-28T03:43:33.570Z,99.90
2023-03-28T03:46:00.778Z,99.90
2023-03-28T03:48:27.765Z,99.90
2023-03-28T03:50:54.239Z,99.90
2023-03-28T03:53:20.761Z,99.90
2023-03-28T03:55:47.357Z,99.90
2023-03-28T03:58:13.833Z,99.90
2023-03-28T04:00:40.403Z,99.90
2023-03-28T04:03:06.978Z,99.90
2023-03-28T04:05:51.999Z,99.90
2023-03-28T04:08:18.692Z,99.90
2023-03-28T04:10:47.202Z,99.90
2023-03-28T04:13:13.937Z,99.90
2023-03-28T04:15:44.974Z,99.90
2023-03-28T04:18:11.533Z,99.90
2023-03-28T04:20:39.612Z,99.90
2023-03-28T04:23:07.630Z,99.90
2023-03-28T04:25:34.148Z,99.90
2023-03-28T04:28:01.119Z,99.90
2023-03-28T04:30:27.810Z,99.90
2023-03-28T04:32:54.451Z,99.90
2023-03-28T04:35:22.833Z,99.90
2023-03-28T04:37:49.484Z,99.90
2023-03-28T04:40:16.937Z,99.90
2023-03-28T04:42:43.741Z,99.90
2023-03-28T04:45:10.791Z,99.90
2023-03-28T04:47:39.033Z,99.90
2023-03-28T04:50:08.420Z,99.90
2023-03-28T04:52:35.897Z,99.90
2023-03-28T04:55:02.921Z,99.90
2023-03-28T04:57:29.411Z,99.90
2023-03-28T04:59:55.887Z,99.90
2023-03-28T05:02:22.455Z,99.90
2023-03-28T05:04:48.980Z,99.90
2023-03-28T05:07:15.686Z,99.90
2023-03-28T05:09:42.194Z,99.90
2023-03-28T05:12:08.687Z,99.90
2023-03-28T05:14:35.552Z,99.90
2023-03-28T05:17:02.027Z,99.90
2023-03-28T05:19:28.535Z,99.90
2023-03-28T05:21:55.238Z,99.90
2023-03-28T05:24:21.728Z,99.90
2023-03-28T05:26:48.250Z,99.90
2023-03-28T05:29:14.793Z,99.90
2023-03-28T05:31:41.361Z,99.90
2023-03-28T05:34:07.937Z,99.90
2023-03-28T05:36:34.416Z,99.90
2023-03-28T05:39:01.139Z,99.90
2023-03-28T05:41:27.624Z,99.90
2023-03-28T05:43:54.114Z,99.90
2023-03-28T05:46:20.846Z,99.90
2023-03-28T05:48:49.897Z,99.90
2023-03-28T05:51:16.748Z,99.90
2023-03-28T05:53:43.552Z,99.90
2023-03-28T05:56:10.243Z,99.90
2023-03-28T05:58:36.722Z,99.90
2023-03-28T06:01:04.707Z,99.90
2023-03-28T06:03:31.940Z,99.90
2023-03-28T06:05:59.228Z,99.90
2023-03-28T06:08:26.557Z,99.90
2023-03-28T06:10:53.058Z,98.30
2023-03-28T06:13:19.911Z,98.30
2023-03-28T06:15:46.410Z,97.70
2023-03-28T06:18:12.975Z,94.80
2023-03-28T06:20:39.523Z,94.20
2023-03-28T06:23:06.036Z,93.10
2023-03-28T06:25:32.595Z,92.20
2023-03-28T06:27:59.119Z,91.90
2023-03-28T06:30:25.691Z,90.70
2023-03-28T06:32:52.229Z,90.40
2023-03-28T06:35:18.966Z,86.40
2023-03-28T06:37:45.512Z,85.00
2023-03-28T06:40:12.111Z,84.40
2023-03-28T06:42:38.625Z,84.50
2023-03-28T06:45:06.172Z,84.30
2023-03-28T06:47:32.651Z,84.40
2023-03-28T06:49:59.179Z,82.80
2023-03-28T06:52:25.643Z,83.00
2023-03-28T06:54:52.156Z,82.70
2023-03-28T06:57:18.681Z,83.50
2023-03-28T06:59:45.213Z,82.80
2023-03-28T07:02:12.140Z,80.10
2023-03-28T07:04:38.757Z,82.70
2023-03-28T07:07:07.104Z,82.50
2023-03-28T07:09:33.592Z,82.00
2023-03-28T07:12:00.106Z,83.70
2023-03-28T07:14:26.764Z,85.60
2023-03-28T07:16:53.332Z,86.90
2023-03-28T07:19:20.204Z,86.80
2023-03-28T07:21:46.696Z,87.90
2023-03-28T07:24:13.320Z,88.00
2023-03-28T07:26:39.828Z,88.20
2023-03-28T07:29:06.633Z,87.50
2023-03-28T07:31:33.837Z,88.30
2023-03-28T07:34:00.412Z,88.80
2023-03-28T07:36:28.552Z,90.20
2023-03-28T07:38:55.336Z,90.10
2023-03-28T07:41:21.947Z,89.90
2023-03-28T07:43:48.458Z,88.50
2023-03-28T07:46:15.688Z,86.90
2023-03-28T07:48:44.809Z,87.30
2023-03-28T07:51:11.592Z,86.40
2023-03-28T07:53:38.387Z,83.50
2023-03-28T07:56:10.895Z,83.10
2023-03-28T07:58:39.007Z,82.30
2023-03-28T08:01:08.887Z,79.50
2023-03-28T08:03:35.737Z,79.20
2023-03-28T08:06:20.150Z,77.20
2023-03-28T08:08:51.286Z,77.70
2023-03-28T08:11:17.793Z,76.90
2023-03-28T08:13:44.283Z,74.80
2023-03-28T08:16:10.810Z,74.90
2023-03-28T08:18:42.526Z,73.00
2023-03-28T08:21:09.271Z,70.10
2023-03-28T08:23:36.065Z,70.70
2023-03-28T08:26:05.378Z,72.00
2023-03-28T08:28:37.039Z,71.20
2023-03-28T08:31:15.605Z,71.90
2023-03-28T08:33:43.781Z,67.40
2023-03-28T08:36:14.401Z,68.60
2023-03-28T08:38:45.855Z,67.30
2023-03-28T08:42:55.409Z,68.80
2023-03-28T08:45:46.230Z,70.40
2023-03-28T08:48:46.551Z,69.50
2023-03-28T08:51:56.259Z,68.10
2023-03-28T08:54:39.495Z,67.40
2023-03-28T08:57:13.260Z,69.80
2023-03-28T09:00:13.346Z,69.40
2023-03-28T09:02:41.860Z,70.40
2023-03-28T09:05:23.795Z,66.30
2023-03-28T09:08:30.382Z,67.50
2023-03-28T09:11:54.102Z,68.40
2023-03-28T09:19:14.692Z,66.50
2023-03-28T09:24:16.679Z,62.90
2023-03-28T09:27:14.522Z,60.40
2023-03-28T09:29:44.509Z,58.40
2023-03-28T09:34:50.639Z,57.60
2023-03-28T09:37:37.346Z,56.70
2023-03-28T09:40:29.052Z,58.20
2023-03-28T09:44:15.762Z,56.90
2023-03-28T09:46:47.777Z,54.60
2023-03-28T09:49:25.683Z,54.80
2023-03-28T09:51:56.130Z,54.50
2023-03-28T09:54:34.485Z,57.00
2023-03-28T09:57:04.165Z,57.10
2023-03-28T09:59:34.039Z,56.80
2023-03-28T10:02:29.489Z,56.80
2023-03-28T10:04:56.084Z,56.20
2023-03-28T10:07:42.767Z,56.80
2023-03-28T10:10:24.150Z,57.80
2023-03-28T10:12:58.395Z,58.90
2023-03-28T10:18:04.618Z,56.70
2023-03-28T10:20:36.897Z,60.10
2023-03-28T10:23:05.340Z,61.90
2023-03-28T10:25:45.146Z,63.10
2023-03-28T10:28:28.921Z,64.40
2023-03-28T10:31:00.836Z,65.00
2023-03-28T10:33:39.685Z,65.50
2023-03-28T10:36:11.782Z,66.80
2023-03-28T10:38:48.963Z,66.80
2023-03-28T10:41:52.824Z,66.50
2023-03-28T10:44:35.742Z,63.50
2023-03-28T10:47:13.979Z,61.30
2023-03-28T10:49:51.924Z,60.50
2023-03-28T10:52:53.059Z,61.90
2023-03-28T10:55:35.574Z,62.90
2023-03-28T10:59:16.240Z,64.00
2023-03-28T11:05:10.700Z,64.10
2023-03-28T11:08:28.567Z,61.40
2023-03-28T11:13:33.649Z,63.60
2023-03-28T11:19:14.552Z,61.10
2023-03-28T11:23:43.785Z,61.60
2023-03-28T11:28:05.254Z,63.70
2023-03-28T11:30:34.471Z,62.40
2023-03-28T11:33:42.682Z,61.60
2023-03-28T11:36:35.085Z,58.10
2023-03-28T11:39:19.631Z,57.00
2023-03-28T11:41:50.672Z,60.10
2023-03-28T11:46:20.014Z,58.70
2023-03-28T11:49:25.900Z,58.90
2023-03-28T11:52:20.032Z,60.20
2023-03-28T11:55:34.959Z,60.50
2023-03-28T11:58:23.480Z,61.50
2023-03-28T12:01:07.624Z,58.00
2023-03-28T12:04:03.120Z,58.30
2023-03-28T12:07:08.173Z,57.60
2023-03-28T12:10:14.086Z,58.50
2023-03-28T12:13:46.806Z,56.20
2023-03-28T12:16:23.297Z,58.00
2023-03-28T12:19:03.322Z,55.30
2023-03-28T12:21:44.272Z,56.60
2023-03-28T12:24:53.193Z,57.20
2023-03-28T12:28:42.827Z,57.00
2023-03-28T12:31:46.447Z,56.50
2023-03-28T12:34:39.462Z,57.50
2023-03-28T12:37:47.809Z,56.10
2023-03-28T12:41:03.300Z,56.20
2023-03-28T12:43:57.591Z,56.70
2023-03-28T12:46:37.646Z,55.40
2023-03-28T12:51:51.162Z,53.80
2023-03-28T12:55:01.329Z,53.50
2023-03-28T12:57:46.628Z,53.90
2023-03-28T13:00:39.606Z,53.30
2023-03-28T13:03:57.394Z,53.00
2023-03-28T13:06:57.180Z,53.10
2023-03-28T13:10:14.720Z,53.30
2023-03-28T13:14:05.091Z,53.00
2023-03-28T13:16:55.801Z,53.40
2023-03-28T13:19:45.870Z,52.90
2023-03-28T13:23:44.053Z,53.00
2023-03-28T13:26:10.576Z,53.70
2023-03-28T13:28:47.548Z,54.70
2023-03-28T13:31:25.962Z,53.30
2023-03-28T13:34:00.243Z,52.80
2023-03-28T13:36:31.979Z,52.80
2023-03-28T13:39:32.698Z,54.50
2023-03-28T13:42:00.232Z,54.20
2023-03-28T13:44:50.132Z,53.30
2023-03-28T13:47:35.848Z,54.50
2023-03-28T13:52:26.872Z,54.50
2023-03-28T13:55:01.088Z,56.10
2023-03-28T13:57:28.218Z,54.40
2023-03-28T14:00:05.986Z,54.80
2023-03-28T14:03:02.589Z,54.70
2023-03-28T14:05:33.349Z,54.90
2023-03-28T14:08:21.557Z,55.30
2023-03-28T14:10:50.691Z,55.00
2023-03-28T14:13:23.831Z,55.30
2023-03-28T14:15:52.820Z,54.70
2023-03-28T14:18:34.082Z,55.50
2023-03-28T14:21:01.017Z,55.20
2023-03-28T14:23:58.506Z,54.10
2023-03-28T14:26:31.491Z,54.60
2023-03-28T14:29:12.784Z,55.10
2023-03-28T14:31:45.376Z,54.70
2023-03-28T14:34:45.117Z,56.80
2023-03-28T14:37:18.836Z,55.90
2023-03-28T14:39:46.578Z,56.70
2023-03-28T14:42:17.913Z,56.00
2023-03-28T14:44:55.391Z,56.00
2023-03-28T14:47:32.477Z,56.90
2023-03-28T14:50:00.699Z,56.90
2023-03-28T14:52:40.114Z,57.10
2023-03-28T14:55:21.458Z,58.70
2023-03-28T14:57:52.233Z,57.70
2023-03-28T15:00:25.248Z,56.30
2023-03-28T15:02:53.105Z,58.10
2023-03-28T15:05:22.398Z,57.10
2023-03-28T15:08:01.119Z,57.30
2023-03-28T15:10:28.528Z,57.60
2023-03-28T15:13:23.353Z,58.40
2023-03-28T15:15:53.037Z,58.50
2023-03-28T15:18:27.862Z,59.20
2023-03-28T15:21:01.046Z,59.10
2023-03-28T15:23:33.161Z,59.60
2023-03-28T15:26:06.921Z,59.70
2023-03-28T15:28:34.398Z,59.80
2023-03-28T15:31:03.368Z,59.70
2023-03-28T15:33:33.890Z,60.00
2023-03-28T15:36:19.320Z,60.30
2023-03-28T15:38:57.774Z,59.90
2023-03-28T15:41:48.736Z,59.60
2023-03-28T15:44:35.165Z,60.00
2023-03-28T15:47:21.248Z,59.60
2023-03-28T15:49:49.947Z,59.80
2023-03-28T15:52:20.847Z,60.40
2023-03-28T15:54:55.741Z,61.20
2023-03-28T15:57:27.608Z,59.90
2023-03-28T15:59:55.378Z,59.70
2023-03-28T16:02:42.173Z,59.90
2023-03-28T16:05:51.195Z,59.30
2023-03-28T16:08:33.381Z,59.40
2023-03-28T16:11:01.272Z,58.30
2023-03-28T16:13:29.090Z,57.80
2023-03-28T16:15:55.648Z,58.60
2023-03-28T16:18:22.204Z,59.20
2023-03-28T16:20:48.669Z,58.70
2023-03-28T16:23:15.202Z,58.90
2023-03-28T16:25:42.998Z,58.40
2023-03-28T16:28:19.933Z,59.20
2023-03-28T16:30:46.587Z,59.20
2023-03-28T16:33:13.151Z,57.90
2023-03-28T16:35:39.741Z,58.50
2023-03-28T16:38:06.251Z,59.40
2023-03-28T16:40:33.021Z,58.10
2023-03-28T16:42:59.631Z,58.30
2023-03-28T16:45:26.398Z,58.30
2023-03-28T16:47:53.027Z,58.20
2023-03-28T16:50:19.574Z,58.00
2023-03-28T16:52:46.069Z,57.90
2023-03-28T16:55:16.288Z,58.50
2023-03-28T16:57:44.077Z,59.30
2023-03-28T17:00:16.954Z,59.30
2023-03-28T17:02:47.248Z,59.60
2023-03-28T17:05:15.464Z,59.30
2023-03-28T17:07:41.964Z,59.60
2023-03-28T17:10:10.246Z,61.00
2023-03-28T17:12:36.888Z,61.20
2023-03-28T17:15:03.938Z,60.20
2023-03-28T17:17:30.428Z,62.80
2023-03-28T17:19:56.937Z,62.80
2023-03-28T17:22:24.734Z,64.30
2023-03-28T17:24:51.239Z,63.80
2023-03-28T17:27:20.401Z,65.40
2023-03-28T17:29:46.861Z,67.40
2023-03-28T17:32:13.434Z,64.10
2023-03-28T17:34:39.976Z,66.50
2023-03-28T17:37:06.455Z,67.80
2023-03-28T17:39:32.925Z,68.40
2023-03-28T17:41:59.414Z,70.20
2023-03-28T17:44:25.939Z,68.70
2023-03-28T17:46:53.561Z,72.60
2023-03-28T17:49:20.202Z,73.40
2023-03-28T17:51:46.679Z,72.70
2023-03-28T17:54:13.831Z,73.20
2023-03-28T17:56:40.846Z,74.70
2023-03-28T17:59:07.396Z,73.50
2023-03-28T18:01:34.282Z,73.70
2023-03-28T18:04:00.944Z,73.20
2023-03-28T18:06:27.564Z,74.70
2023-03-28T18:08:54.092Z,72.80
2023-03-28T18:11:22.194Z,73.50
2023-03-28T18:13:49.379Z,72.90
2023-03-28T18:16:17.464Z,73.20
2023-03-28T18:18:44.121Z,72.70
2023-03-28T18:21:11.911Z,74.20
2023-03-28T18:23:38.726Z,73.80
2023-03-28T18:26:05.979Z,72.50
2023-03-28T18:28:33.854Z,72.80
2023-03-28T18:31:13.800Z,72.60
2023-03-28T18:33:42.522Z,73.60
2023-03-28T18:36:11.286Z,73.90
2023-03-28T18:38:41.401Z,73.60
2023-03-28T18:41:09.509Z,74.10
2023-03-28T18:43:41.523Z,74.60
2023-03-28T18:46:09.389Z,75.10
2023-03-28T18:48:36.142Z,74.90
2023-03-28T18:51:05.413Z,75.60
2023-03-28T18:53:33.059Z,75.90
2023-03-28T18:55:59.896Z,76.50
2023-03-28T18:58:26.641Z,75.80
2023-03-28T19:00:58.545Z,76.20
2023-03-28T19:03:27.194Z,76.70
2023-03-28T19:06:00.686Z,77.10
2023-03-28T19:08:29.153Z,77.40
2023-03-28T19:10:59.313Z,77.60
2023-03-28T19:13:28.427Z,77.60
2023-03-28T19:16:05.157Z,76.60
2023-03-28T19:18:32.857Z,76.50
2023-03-28T19:21:00.294Z,77.10
2023-03-28T19:23:27.781Z,78.70
2023-03-28T19:25:54.753Z,80.10
2023-03-28T19:28:22.163Z,78.00
2023-03-28T19:30:56.852Z,77.60
2023-03-28T19:33:23.429Z,75.30
2023-03-28T19:35:50.064Z,80.10
2023-03-28T19:38:16.576Z,81.20
2023-03-28T19:40:43.512Z,81.80
2023-03-28T19:43:09.977Z,82.50
2023-03-28T19:45:40.539Z,83.50
2023-03-28T19:48:07.552Z,80.10
2023-03-28T19:50:35.874Z,77.90
2023-03-28T19:53:03.271Z,79.70
2023-03-28T19:55:29.995Z,80.70
2023-03-28T19:57:57.479Z,80.10
2023-03-28T20:00:24.358Z,85.20
2023-03-28T20:02:50.988Z,84.80
2023-03-28T20:05:18.514Z,82.60
2023-03-28T20:07:44.998Z,85.60
2023-03-28T20:10:11.474Z,85.90
2023-03-28T20:12:39.076Z,86.50
2023-03-28T20:15:07.946Z,85.30
2023-03-28T20:17:34.604Z,86.10
2023-03-28T20:20:01.154Z,82.20
2023-03-28T20:22:29.032Z,84.00
2023-03-28T20:24:55.626Z,83.40
2023-03-28T20:27:24.312Z,83.50
2023-03-28T20:29:51.399Z,85.50
2023-03-28T20:32:17.866Z,85.80
2023-03-28T20:34:44.347Z,88.20
2023-03-28T20:37:13.317Z,85.40
2023-03-28T20:39:41.112Z,84.60
2023-03-28T20:42:08.295Z,85.70
2023-03-28T20:44:37.541Z,88.20
2023-03-28T20:47:17.913Z,90.50
2023-03-28T20:49:45.328Z,90.80
2023-03-28T20:52:12.209Z,89.90
2023-03-28T20:54:38.901Z,88.10
2023-03-28T20:57:05.424Z,88.10
2023-03-28T20:59:33.906Z,87.60
2023-03-28T21:02:01.370Z,87.30
2023-03-28T21:04:27.909Z,88.90
2023-03-28T21:06:54.441Z,89.40
2023-03-28T21:09:21.028Z,89.90
2023-03-28T21:11:48.880Z,88.60
2023-03-28T21:14:15.504Z,87.60
2023-03-28T21:16:42.046Z,90.10
2023-03-28T21:19:09.089Z,90.50
2023-03-28T21:21:35.776Z,90.90
2023-03-28T21:24:04.451Z,91.10
2023-03-28T21:26:31.819Z,91.60
2023-03-28T21:28:58.638Z,91.90
2023-03-28T21:31:28.471Z,92.30
2023-03-28T21:33:57.162Z,91.70
2023-03-28T21:36:25.649Z,91.70
2023-03-28T21:38:52.472Z,91.50
2023-03-28T21:41:18.981Z,90.20
2023-03-28T21:43:46.886Z,88.70
2023-03-28T21:46:14.540Z,89.10
2023-03-28T21:48:43.778Z,91.70
2023-03-28T21:51:10.287Z,91.00
2023-03-28T21:53:41.526Z,90.50
2023-03-28T21:56:10.756Z,90.20
2023-03-28T21:58:37.246Z,90.40
2023-03-28T22:01:04.368Z,90.10
2023-03-28T22:03:31.637Z,89.80
2023-03-28T22:05:58.335Z,89.60
2023-03-28T22:08:24.821Z,88.70
2023-03-28T22:10:56.578Z,87.90
2023-03-28T22:13:23.167Z,87.40
2023-03-28T22:15:51.548Z,88.20
2023-03-28T22:18:18.687Z,87.80
2023-03-28T22:20:45.160Z,89.40
2023-03-28T22:23:12.348Z,90.40
2023-03-28T22:25:39.090Z,90.60
2023-03-28T22:28:09.155Z,91.30
2023-03-28T22:30:39.645Z,92.50
2023-03-28T22:33:10.237Z,92.60
2023-03-28T22:35:37.499Z,93.40
2023-03-28T22:38:04.542Z,93.80
2023-03-28T22:40:31.152Z,94.10
2023-03-28T22:42:57.642Z,94.40
2023-03-28T22:45:28.231Z,94.30
2023-03-28T22:47:59.269Z,94.60
2023-03-28T22:50:27.139Z,94.30
2023-03-28T22:52:54.312Z,93.20
2023-03-28T22:55:23.561Z,93.00
2023-03-28T22:57:52.872Z,93.00
2023-03-28T23:00:22.080Z,92.40
2023-03-28T23:02:50.823Z,92.80
2023-03-28T23:05:17.936Z,93.10
2023-03-28T23:07:44.456Z,93.60
2023-03-28T23:10:16.349Z,93.90
2023-03-28T23:12:43.525Z,94.10
2023-03-28T23:15:11.270Z,94.50
2023-03-28T23:17:38.244Z,94.80
2023-03-28T23:20:16.272Z,95.10
2023-03-28T23:22:46.533Z,95.20
2023-03-28T23:25:17.612Z,95.10
2023-03-28T23:27:45.057Z,95.40
2023-03-28T23:30:13.507Z,96.10
2023-03-28T23:32:40.077Z,95.50
2023-03-28T23:35:09.578Z,95.40
2023-03-28T23:37:37.313Z,96.00
2023-03-28T23:40:13.269Z,96.30
2023-03-28T23:42:45.007Z,95.60
2023-03-28T23:45:13.996Z,95.60
2023-03-28T23:47:41.241Z,95.70
2023-03-28T23:50:09.411Z,95.80
2023-03-28T23:52:36.079Z,95.70
2023-03-28T23:55:02.851Z,96.10
2023-03-28T23:57:32.272Z,95.50
2023-03-28T23:59:58.809Z,95.50
